SGT weather

Stuttgart Municipal Airport / Carl Humphrey Field
Stuttgart, Arkansas, United States

Public forecast

Using degrees Fahrenheit for public forecast. Weather courtesy of forecast.io.

METAR (pilot weather report)

Retrieved 2019/08/17 15:56 UTC (5 minutes ago):

KSGT 171556Z AUTO VRB05KT 10SM CLR 31/24 A2998 RMK AO2 SLP150 T03110239

TAF (pilot weather forecast)

Closest forecast is Pine Bluff Regional Airport, Grider Field, 31.2 nm (57.8 km) SW. Retrieved 2019/08/17 12:22 UTC (4 hours ago):

TAF KPBF 171120Z 1712/1812 VRB04KT P6SM SKC FM171500 16008KT P6SM SCT050 SCT250